Terminal Aerodrome Forecast
Issued by NWS Louisville, KY

Home | Current Version | Previous Version | Text Only | Print | Product List | Glossary On
Versions: 1 2 3 4 5 6 7 8 9 10 11 12 13 14
000
FTUS43 KLMK 292320
TAFSDF
TAF
KSDF 292320Z 3000/3106 18004KT P6SM BKN200
     FM301500 19007KT P6SM SCT040 PROB30 3018/3022 -TSRA SCT045CB=

USA.gov is the U.S. government's official web portal to all federal, state and local government web resources and services.